createdAt,value
2023-01-26T00:02:24.412Z,22.07
2023-01-26T00:04:51.715Z,21.40
2023-01-26T00:07:19.039Z,22.27
2023-01-26T00:09:46.265Z,22.47
2023-01-26T00:14:59.302Z,22.37
2023-01-26T00:17:26.509Z,21.57
2023-01-26T00:19:55.386Z,21.07
2023-01-26T00:22:22.795Z,21.77
2023-01-26T00:24:50.031Z,22.10
2023-01-26T00:27:17.458Z,21.77
2023-01-26T00:29:44.736Z,21.63
2023-01-26T00:32:11.975Z,20.50
2023-01-26T00:34:39.217Z,20.80
2023-01-26T00:37:06.471Z,20.33
2023-01-26T00:39:33.828Z,23.07
2023-01-26T00:42:09.704Z,22.60
2023-01-26T00:44:38.332Z,21.47
2023-01-26T00:47:09.668Z,22.83
2023-01-26T00:49:36.934Z,21.03
2023-01-26T00:52:04.838Z,21.73
2023-01-26T00:54:32.030Z,21.77
2023-01-26T00:56:59.233Z,21.47
2023-01-26T00:59:26.520Z,21.80
2023-01-26T01:01:54.373Z,21.90
2023-01-26T01:04:22.279Z,20.50
2023-01-26T01:06:49.646Z,22.13
2023-01-26T01:09:18.120Z,22.37
2023-01-26T01:11:45.820Z,23.47
2023-01-26T01:14:15.505Z,23.20
2023-01-26T01:16:43.966Z,22.10
2023-01-26T01:19:14.426Z,23.87
2023-01-26T01:21:42.461Z,23.43
2023-01-26T01:24:11.492Z,22.57
2023-01-26T01:26:39.666Z,21.97
2023-01-26T01:29:07.996Z,22.33
2023-01-26T01:31:35.391Z,22.57
2023-01-26T01:34:02.805Z,22.93
2023-01-26T01:36:31.315Z,21.77
2023-01-26T01:38:58.721Z,21.77
2023-01-26T01:41:27.144Z,22.03
2023-01-26T01:44:12.943Z,22.80
2023-01-26T01:46:40.978Z,22.53
2023-01-26T01:49:11.307Z,22.07
2023-01-26T01:51:45.195Z,22.67
2023-01-26T01:54:14.021Z,23.80
2023-01-26T01:56:43.714Z,24.07
2023-01-26T01:59:12.294Z,23.13
2023-01-26T02:01:39.648Z,24.73
2023-01-26T02:04:08.158Z,23.53
2023-01-26T02:06:53.837Z,24.50
2023-01-26T02:09:43.445Z,24.17
2023-01-26T02:12:12.253Z,24.47
2023-01-26T02:14:39.484Z,23.17
2023-01-26T02:17:06.869Z,25.03
2023-01-26T02:19:49.635Z,24.97
2023-01-26T02:22:43.270Z,23.93
2023-01-26T02:25:33.900Z,24.17
2023-01-26T02:28:01.486Z,26.17
2023-01-26T02:30:29.679Z,24.13
2023-01-26T02:32:57.094Z,23.43
2023-01-26T02:35:24.370Z,26.13
2023-01-26T02:37:51.883Z,23.67
2023-01-26T02:40:22.271Z,25.20
2023-01-26T02:42:49.626Z,24.73
2023-01-26T02:45:17.865Z,24.00
2023-01-26T02:47:46.702Z,24.10
2023-01-26T02:50:14.581Z,24.33
2023-01-26T02:52:44.170Z,24.30
2023-01-26T02:55:28.328Z,25.13
2023-01-26T02:58:00.112Z,23.70
2023-01-26T03:00:29.864Z,23.97
2023-01-26T03:02:58.760Z,24.80
2023-01-26T03:05:26.763Z,21.40
2023-01-26T03:07:56.107Z,21.20
2023-01-26T03:10:27.092Z,22.60
2023-01-26T03:12:54.590Z,20.97
2023-01-26T03:15:40.593Z,22.33
2023-01-26T03:18:28.372Z,22.03
2023-01-26T03:21:14.946Z,21.97
2023-01-26T03:24:01.175Z,20.17
2023-01-26T03:26:48.079Z,22.57
2023-01-26T03:29:15.424Z,22.10
2023-01-26T03:31:43.871Z,22.73
2023-01-26T03:34:11.433Z,22.67
2023-01-26T03:36:39.911Z,22.43
2023-01-26T03:39:32.188Z,22.23
2023-01-26T03:42:18.895Z,24.50
2023-01-26T03:45:05.912Z,24.70
2023-01-26T03:47:52.691Z,23.10
2023-01-26T03:50:39.131Z,24.50
2023-01-26T03:53:38.834Z,25.20
2023-01-26T03:56:23.037Z,24.00
2023-01-26T03:58:56.565Z,24.00
2023-01-26T04:01:27.797Z,23.13
2023-01-26T04:04:16.788Z,22.90
2023-01-26T04:07:06.257Z,23.20
2023-01-26T04:09:36.552Z,24.23
2023-01-26T04:12:04.602Z,21.60
2023-01-26T04:14:53.196Z,22.17
2023-01-26T04:17:42.961Z,22.43
2023-01-26T04:20:29.631Z,22.67
2023-01-26T04:22:57.110Z,22.63
2023-01-26T04:25:24.431Z,20.87
2023-01-26T04:27:52.440Z,20.90
2023-01-26T04:30:20.337Z,19.03
2023-01-26T04:32:48.383Z,20.40
2023-01-26T04:35:16.879Z,19.13
2023-01-26T04:37:44.563Z,20.37
2023-01-26T04:40:12.571Z,20.50
2023-01-26T04:42:41.103Z,19.00
2023-01-26T04:45:10.561Z,19.13
2023-01-26T04:47:39.075Z,20.40
2023-01-26T04:50:06.943Z,20.30
2023-01-26T04:52:34.525Z,21.10
2023-01-26T04:55:02.192Z,20.40
2023-01-26T04:57:32.098Z,20.13
2023-01-26T05:00:03.709Z,19.23
2023-01-26T05:02:31.093Z,19.53
2023-01-26T05:04:58.331Z,19.00
2023-01-26T05:07:25.816Z,19.13
2023-01-26T05:09:53.699Z,19.07
2023-01-26T05:12:45.344Z,19.67
2023-01-26T05:15:33.423Z,16.97
2023-01-26T05:18:19.378Z,16.97
2023-01-26T05:20:52.308Z,20.23
2023-01-26T05:23:25.755Z,20.33
2023-01-26T05:25:55.675Z,18.70
2023-01-26T05:28:23.074Z,18.97
2023-01-26T05:30:51.476Z,19.17
2023-01-26T05:33:22.188Z,19.20
2023-01-26T05:35:50.784Z,17.17
2023-01-26T05:38:18.415Z,24.90
2023-01-26T05:40:45.997Z,25.33
2023-01-26T05:43:14.617Z,16.57
2023-01-26T05:46:00.662Z,15.00
2023-01-26T05:48:28.069Z,16.67
2023-01-26T05:50:56.870Z,15.57
2023-01-26T05:53:24.216Z,16.30
2023-01-26T05:55:52.038Z,15.77
2023-01-26T05:58:22.753Z,16.07
2023-01-26T06:00:50.083Z,15.63
2023-01-26T06:03:24.390Z,16.03
2023-01-26T06:05:55.160Z,16.17
2023-01-26T06:08:41.268Z,17.20
2023-01-26T06:11:27.363Z,18.00
2023-01-26T06:14:06.355Z,18.23
2023-01-26T06:16:34.947Z,18.37
2023-01-26T06:19:03.651Z,16.87
2023-01-26T06:21:32.153Z,17.73
2023-01-26T06:24:00.248Z,28.23
2023-01-26T06:26:27.729Z,83.70
2023-01-26T06:28:57.217Z,19.30
2023-01-26T06:31:29.635Z,17.03
2023-01-26T06:33:59.224Z,17.67
2023-01-26T06:36:28.396Z,17.43
2023-01-26T06:38:57.689Z,17.90
2023-01-26T06:41:25.862Z,18.50
2023-01-26T06:43:53.606Z,18.23
2023-01-26T06:46:20.952Z,17.47
2023-01-26T06:48:52.457Z,19.03
2023-01-26T06:51:20.566Z,18.80
2023-01-26T06:54:06.826Z,19.63
2023-01-26T06:56:57.324Z,19.77
2023-01-26T06:59:51.027Z,20.10
2023-01-26T07:02:36.271Z,20.10
2023-01-26T07:05:03.828Z,19.93
2023-01-26T07:07:31.065Z,20.17
2023-01-26T07:09:58.573Z,19.87
2023-01-26T07:12:25.916Z,19.53
2023-01-26T07:14:53.242Z,19.83
2023-01-26T07:17:20.534Z,20.90
2023-01-26T07:19:47.750Z,21.57
2023-01-26T07:22:15.097Z,21.57
2023-01-26T07:24:42.358Z,22.23
2023-01-26T07:27:09.717Z,22.07
2023-01-26T07:29:37.262Z,22.80
2023-01-26T07:32:04.630Z,22.93
2023-01-26T07:34:32.012Z,22.63
2023-01-26T07:36:59.294Z,22.27
2023-01-26T07:39:26.890Z,23.47
2023-01-26T07:41:54.305Z,22.97
2023-01-26T07:44:34.224Z,22.53
2023-01-26T07:47:01.469Z,24.43
2023-01-26T07:49:28.783Z,22.80
2023-01-26T07:51:56.064Z,21.63
2023-01-26T07:54:23.393Z,23.33
2023-01-26T07:56:54.548Z,23.63
2023-01-26T07:59:22.279Z,23.73
2023-01-26T08:01:50.098Z,23.00
2023-01-26T08:04:17.455Z,22.83
2023-01-26T08:06:44.718Z,22.53
2023-01-26T08:09:12.272Z,23.20
2023-01-26T08:11:39.464Z,23.33
2023-01-26T08:14:06.784Z,22.60
2023-01-26T08:16:34.082Z,23.70
2023-01-26T08:19:01.544Z,22.67
2023-01-26T08:21:28.861Z,22.90
2023-01-26T08:24:14.781Z,23.17
2023-01-26T08:26:42.315Z,21.73
2023-01-26T08:29:09.520Z,21.53
2023-01-26T08:31:36.862Z,22.77
2023-01-26T08:34:04.477Z,23.17
2023-01-26T08:36:31.813Z,21.67
2023-01-26T08:38:59.072Z,23.77
2023-01-26T08:41:26.408Z,23.60
2023-01-26T08:43:54.050Z,24.10
2023-01-26T08:46:21.539Z,24.57
2023-01-26T08:51:33.465Z,21.30
2023-01-26T08:54:00.739Z,21.20
2023-01-26T08:56:28.139Z,23.23
2023-01-26T08:58:55.392Z,21.70
2023-01-26T09:01:22.848Z,22.60
2023-01-26T09:03:51.280Z,21.23
2023-01-26T09:06:18.564Z,23.47
2023-01-26T09:08:45.958Z,23.57
2023-01-26T09:11:13.301Z,23.60
2023-01-26T09:13:40.750Z,21.80
2023-01-26T09:16:08.936Z,21.87
2023-01-26T09:18:36.214Z,23.43
2023-01-26T09:21:06.732Z,22.70
2023-01-26T09:23:34.439Z,22.80
2023-01-26T09:26:02.117Z,22.50
2023-01-26T09:28:29.368Z,23.70
2023-01-26T09:30:56.814Z,23.83
2023-01-26T09:33:25.294Z,23.87
2023-01-26T09:35:52.551Z,22.77
2023-01-26T09:38:19.799Z,22.33
2023-01-26T09:41:06.223Z,21.87
2023-01-26T09:43:52.536Z,22.77
2023-01-26T09:46:27.384Z,22.50
2023-01-26T09:49:07.890Z,21.53
2023-01-26T09:51:37.719Z,21.33
2023-01-26T09:54:12.738Z,20.07
2023-01-26T09:56:40.383Z,22.33
2023-01-26T09:59:26.555Z,21.23
2023-01-26T10:02:03.113Z,21.33
2023-01-26T10:04:41.504Z,20.73
2023-01-26T10:07:13.219Z,20.13
2023-01-26T10:09:50.437Z,20.20
2023-01-26T10:12:17.895Z,20.40
2023-01-26T10:15:05.829Z,19.00
2023-01-26T10:17:35.331Z,20.00
2023-01-26T10:20:17.526Z,20.63
2023-01-26T10:22:55.659Z,19.37
2023-01-26T10:25:28.991Z,19.57
2023-01-26T10:27:56.301Z,19.57
2023-01-26T10:30:23.574Z,20.13
2023-01-26T10:32:52.581Z,21.30
2023-01-26T10:35:21.529Z,20.57
2023-01-26T10:37:49.694Z,19.80
2023-01-26T10:40:17.446Z,20.10
2023-01-26T10:43:03.627Z,20.30
2023-01-26T10:45:32.329Z,20.23
2023-01-26T10:48:18.112Z,20.20
2023-01-26T10:50:45.897Z,19.73
2023-01-26T10:53:30.100Z,19.57
2023-01-26T10:56:00.709Z,18.27
2023-01-26T10:58:40.316Z,18.70
2023-01-26T11:01:12.628Z,19.37
2023-01-26T11:03:40.270Z,18.00
2023-01-26T11:06:07.618Z,18.83
2023-01-26T11:08:36.098Z,20.63
2023-01-26T11:11:04.194Z,19.30
2023-01-26T11:13:31.425Z,18.40
2023-01-26T11:16:17.480Z,19.47
2023-01-26T11:18:54.029Z,18.27
2023-01-26T11:21:27.728Z,18.20
2023-01-26T11:23:58.407Z,19.13
2023-01-26T11:26:33.906Z,19.07
2023-01-26T11:29:21.450Z,18.27
2023-01-26T11:32:07.706Z,20.10
2023-01-26T11:34:41.189Z,20.50
2023-01-26T11:37:27.335Z,17.30
2023-01-26T11:39:54.613Z,19.07
2023-01-26T11:42:37.000Z,18.97
2023-01-26T11:45:12.149Z,19.13
2023-01-26T11:47:45.922Z,19.60
2023-01-26T11:50:45.710Z,18.90
2023-01-26T11:53:20.467Z,18.60
2023-01-26T11:56:06.526Z,18.67
2023-01-26T11:58:41.533Z,18.57
2023-01-26T12:01:16.216Z,18.27
2023-01-26T12:03:46.065Z,18.47
2023-01-26T12:06:20.874Z,18.80
2023-01-26T12:08:51.365Z,19.73
2023-01-26T12:11:23.385Z,19.77
2023-01-26T12:13:59.883Z,19.40
2023-01-26T12:16:42.211Z,19.27
2023-01-26T12:19:28.077Z,18.87
2023-01-26T12:21:58.352Z,16.23
2023-01-26T12:25:01.760Z,16.20
2023-01-26T12:27:20.492Z,16.63
2023-01-26T12:29:53.272Z,16.77
2023-01-26T12:32:22.542Z,16.77
2023-01-26T12:34:49.858Z,16.73
2023-01-26T12:37:22.964Z,14.93
2023-01-26T12:39:59.286Z,15.87
2023-01-26T12:42:29.629Z,15.53
2023-01-26T12:45:02.232Z,15.03
2023-01-26T12:47:37.997Z,14.97
2023-01-26T12:50:05.354Z,15.43
2023-01-26T12:52:32.701Z,16.03
2023-01-26T12:55:03.853Z,15.73
2023-01-26T12:57:34.946Z,15.97
2023-01-26T13:00:09.517Z,15.67
2023-01-26T13:02:38.104Z,14.03
2023-01-26T13:05:05.582Z,14.33
2023-01-26T13:07:37.549Z,15.27
2023-01-26T13:10:20.465Z,15.47
2023-01-26T13:12:56.917Z,15.53
2023-01-26T13:15:26.022Z,14.67
2023-01-26T13:17:54.649Z,14.47
2023-01-26T13:20:40.791Z,14.33
2023-01-26T13:23:27.015Z,13.77
2023-01-26T13:26:26.771Z,13.47
2023-01-26T13:29:14.016Z,13.50
2023-01-26T13:31:41.255Z,12.83
2023-01-26T13:34:09.893Z,13.20
2023-01-26T13:36:39.757Z,12.83
2023-01-26T13:39:13.569Z,12.87
2023-01-26T13:41:46.448Z,12.83
2023-01-26T13:44:24.547Z,12.27
2023-01-26T13:46:58.627Z,13.53
2023-01-26T13:49:38.218Z,13.27
2023-01-26T13:52:15.701Z,13.53
2023-01-26T13:54:44.139Z,12.67
2023-01-26T13:57:12.076Z,13.23
2023-01-26T13:59:52.632Z,12.43
2023-01-26T14:02:24.354Z,13.17
2023-01-26T14:04:53.140Z,12.77
2023-01-26T14:07:21.270Z,12.67
2023-01-26T14:09:49.824Z,13.37
2023-01-26T14:12:25.099Z,12.37
2023-01-26T14:14:54.643Z,13.13
2023-01-26T14:17:32.589Z,12.33
2023-01-26T14:20:19.291Z,12.40
2023-01-26T14:22:48.497Z,12.30
2023-01-26T14:25:20.680Z,12.57
2023-01-26T14:27:47.937Z,13.40
2023-01-26T14:30:23.764Z,12.90
2023-01-26T14:32:55.580Z,11.93
2023-01-26T14:35:41.863Z,12.77
2023-01-26T14:38:12.067Z,13.07
2023-01-26T14:40:45.622Z,12.77
2023-01-26T14:43:13.629Z,13.03
2023-01-26T14:45:44.343Z,12.73
2023-01-26T14:48:13.370Z,12.17
2023-01-26T14:50:41.193Z,12.13
2023-01-26T14:53:22.708Z,12.87
2023-01-26T14:55:51.038Z,13.70
2023-01-26T14:58:23.595Z,13.20
2023-01-26T15:00:50.995Z,11.97
2023-01-26T15:03:27.320Z,11.87
2023-01-26T15:06:05.860Z,12.00
2023-01-26T15:08:35.883Z,12.27
2023-01-26T15:11:23.019Z,11.53
2023-01-26T15:13:54.048Z,12.00
2023-01-26T15:16:23.013Z,11.63
2023-01-26T15:19:00.968Z,11.87
2023-01-26T15:21:43.687Z,12.07
2023-01-26T15:24:14.051Z,11.33
2023-01-26T15:26:42.009Z,12.10
2023-01-26T15:29:31.338Z,12.20
2023-01-26T15:31:58.780Z,13.00
2023-01-26T15:34:36.913Z,12.33
2023-01-26T15:37:05.673Z,12.50
2023-01-26T15:39:32.938Z,11.80
2023-01-26T15:42:16.821Z,14.43
2023-01-26T15:44:44.028Z,13.67
2023-01-26T15:47:13.452Z,12.10
2023-01-26T15:49:42.739Z,12.27
2023-01-26T15:52:13.527Z,12.47
2023-01-26T15:57:25.820Z,12.13
2023-01-26T15:59:53.351Z,11.83
2023-01-26T16:02:21.565Z,12.50
2023-01-26T16:04:49.296Z,12.00
2023-01-26T16:07:19.015Z,11.67
2023-01-26T16:09:48.226Z,12.50
2023-01-26T16:12:31.200Z,11.73
2023-01-26T16:14:59.471Z,12.30
2023-01-26T16:17:26.936Z,12.03
2023-01-26T16:19:54.278Z,12.60
2023-01-26T16:22:21.469Z,12.93
2023-01-26T16:24:48.763Z,12.83
2023-01-26T16:27:16.152Z,12.53
2023-01-26T16:29:43.399Z,12.27
2023-01-26T16:32:20.414Z,12.53
2023-01-26T16:34:47.722Z,12.63
2023-01-26T16:37:15.108Z,12.77
2023-01-26T16:39:42.331Z,13.57
2023-01-26T16:42:11.468Z,12.50
2023-01-26T16:44:38.942Z,12.73
2023-01-26T16:47:06.147Z,12.17
2023-01-26T16:49:33.905Z,12.33
2023-01-26T16:52:01.064Z,22.93
2023-01-26T16:54:28.382Z,18.57
2023-01-26T16:56:55.728Z,18.00
2023-01-26T16:59:23.010Z,13.10
2023-01-26T17:01:50.683Z,15.60
2023-01-26T17:04:18.203Z,19.70
2023-01-26T17:06:45.483Z,13.73
2023-01-26T17:09:12.740Z,12.87
2023-01-26T17:11:40.020Z,12.57
2023-01-26T17:14:07.565Z,13.90
2023-01-26T17:16:34.945Z,12.30
2023-01-26T17:19:02.242Z,12.30
2023-01-26T17:21:29.757Z,11.90
2023-01-26T17:23:59.260Z,12.07
2023-01-26T17:26:27.338Z,13.00
2023-01-26T17:28:56.323Z,12.20
2023-01-26T17:31:25.566Z,14.00
2023-01-26T17:33:56.406Z,14.23
2023-01-26T17:36:24.975Z,13.60
2023-01-26T17:38:53.509Z,13.60
2023-01-26T17:41:21.022Z,14.70
2023-01-26T17:43:48.291Z,15.07
2023-01-26T17:46:18.150Z,13.60
2023-01-26T17:48:45.859Z,13.43
2023-01-26T17:51:14.635Z,12.97
2023-01-26T17:53:42.715Z,11.93
2023-01-26T17:56:11.381Z,11.20
2023-01-26T17:58:38.897Z,12.43
2023-01-26T18:01:25.078Z,12.57
2023-01-26T18:03:53.634Z,13.00
2023-01-26T18:06:21.002Z,12.43
2023-01-26T18:08:48.560Z,12.30
2023-01-26T18:11:16.556Z,13.03
2023-01-26T18:13:44.334Z,11.03
2023-01-26T18:16:15.035Z,11.93
2023-01-26T18:18:42.558Z,10.10
2023-01-26T18:21:13.630Z,10.57
2023-01-26T18:23:43.827Z,11.60
2023-01-26T18:26:11.081Z,11.83
2023-01-26T18:28:39.742Z,11.70
2023-01-26T18:31:11.342Z,11.47
2023-01-26T18:33:38.604Z,9.33
2023-01-26T18:36:12.007Z,9.03
2023-01-26T18:38:40.235Z,10.13
2023-01-26T18:41:16.995Z,11.00
2023-01-26T18:43:45.102Z,11.43
2023-01-26T18:46:12.437Z,10.97
2023-01-26T18:48:39.757Z,11.40
2023-01-26T18:51:08.717Z,11.13
2023-01-26T18:53:38.597Z,11.50
2023-01-26T18:56:07.696Z,11.90
2023-01-26T18:58:35.154Z,12.33
2023-01-26T19:01:05.718Z,12.07
2023-01-26T19:03:33.482Z,12.47
2023-01-26T19:06:04.796Z,12.67
2023-01-26T19:08:32.881Z,14.07
2023-01-26T19:11:09.937Z,13.03
2023-01-26T19:13:41.937Z,13.70
2023-01-26T19:16:09.838Z,13.50
2023-01-26T19:18:37.314Z,13.47
2023-01-26T19:21:05.033Z,14.33
2023-01-26T19:23:33.997Z,14.50
2023-01-26T19:26:01.279Z,14.50
2023-01-26T19:28:28.676Z,14.10
2023-01-26T19:31:02.785Z,14.73
2023-01-26T19:33:31.646Z,14.97
2023-01-26T19:36:00.254Z,14.67
2023-01-26T19:38:46.368Z,13.57
2023-01-26T19:41:14.442Z,14.47
2023-01-26T19:43:42.146Z,14.17
2023-01-26T19:46:11.737Z,13.77
2023-01-26T19:48:39.296Z,14.13
2023-01-26T19:51:08.517Z,14.07
2023-01-26T19:53:37.453Z,14.53
2023-01-26T19:56:07.920Z,14.27
2023-01-26T19:58:35.575Z,14.83
2023-01-26T20:01:04.605Z,14.03
2023-01-26T20:03:32.242Z,14.70
2023-01-26T20:05:59.641Z,13.77
2023-01-26T20:08:28.170Z,14.20
2023-01-26T20:10:55.514Z,13.63
2023-01-26T20:13:22.827Z,13.80
2023-01-26T20:15:50.208Z,14.07
2023-01-26T20:18:18.511Z,13.53
2023-01-26T20:20:49.269Z,12.23
2023-01-26T20:23:16.597Z,12.17
2023-01-26T20:25:43.828Z,13.07
2023-01-26T20:28:11.302Z,13.13
2023-01-26T20:30:39.283Z,12.97
2023-01-26T20:33:07.003Z,13.63
2023-01-26T20:35:34.634Z,12.97
2023-01-26T20:38:01.981Z,12.83
2023-01-26T20:40:29.832Z,12.77
2023-01-26T20:42:57.142Z,13.03
2023-01-26T20:45:24.980Z,13.67
2023-01-26T20:47:53.070Z,12.53
2023-01-26T20:50:20.409Z,13.10
2023-01-26T20:52:47.737Z,12.87
2023-01-26T20:55:15.069Z,11.53
2023-01-26T20:57:42.705Z,12.37
2023-01-26T21:00:10.502Z,12.57
2023-01-26T21:02:38.038Z,12.73
2023-01-26T21:05:07.102Z,15.47
2023-01-26T21:07:34.428Z,13.57
2023-01-26T21:10:01.789Z,33.57
2023-01-26T21:12:29.448Z,12.37
2023-01-26T21:14:56.785Z,13.60
2023-01-26T21:17:24.531Z,12.63
2023-01-26T21:19:51.979Z,11.83
2023-01-26T21:22:21.033Z,13.20
2023-01-26T21:24:48.399Z,22.00
2023-01-26T21:27:16.115Z,25.13
2023-01-26T21:29:43.361Z,14.63
2023-01-26T21:32:10.621Z,12.47
2023-01-26T21:34:37.881Z,11.07
2023-01-26T21:37:06.450Z,12.50
2023-01-26T21:39:33.616Z,12.37
2023-01-26T21:42:01.219Z,13.50
2023-01-26T21:44:29.770Z,13.43
2023-01-26T21:47:01.046Z,14.37
2023-01-26T21:49:29.161Z,14.23
2023-01-26T21:52:15.811Z,13.57
2023-01-26T21:54:43.247Z,14.57
2023-01-26T21:57:30.190Z,15.37
2023-01-26T21:59:57.816Z,15.47
2023-01-26T22:02:25.238Z,14.73
2023-01-26T22:04:52.566Z,15.33
2023-01-26T22:07:20.069Z,14.43
2023-01-26T22:09:47.371Z,14.63
2023-01-26T22:12:14.589Z,15.97
2023-01-26T22:14:44.829Z,14.60
2023-01-26T22:17:12.102Z,14.60
2023-01-26T22:19:39.295Z,15.73
2023-01-26T22:22:06.551Z,14.60
2023-01-26T22:24:33.962Z,14.87
2023-01-26T22:27:01.491Z,15.37
2023-01-26T22:29:29.054Z,14.30
2023-01-26T22:31:56.271Z,14.93
2023-01-26T22:34:24.022Z,14.73
2023-01-26T22:36:51.258Z,14.70
2023-01-26T22:39:19.158Z,14.60
2023-01-26T22:41:46.429Z,13.87
2023-01-26T22:44:13.676Z,14.60
2023-01-26T22:46:40.957Z,13.50
2023-01-26T22:49:08.200Z,12.73
2023-01-26T22:51:38.924Z,12.80
2023-01-26T22:54:24.774Z,13.57
2023-01-26T22:56:52.035Z,14.00
2023-01-26T22:59:19.359Z,14.60
2023-01-26T23:01:46.861Z,14.70
2023-01-26T23:04:14.158Z,15.07
2023-01-26T23:06:41.900Z,15.27
2023-01-26T23:09:09.183Z,15.07
2023-01-26T23:11:36.393Z,14.43
2023-01-26T23:14:03.693Z,15.10
2023-01-26T23:16:31.138Z,13.23
2023-01-26T23:18:59.704Z,13.83
2023-01-26T23:21:27.683Z,14.03
2023-01-26T23:23:55.027Z,13.70
2023-01-26T23:26:22.325Z,14.10
2023-01-26T23:28:49.751Z,14.23
2023-01-26T23:31:17.680Z,14.43
2023-01-26T23:33:45.447Z,14.37
2023-01-26T23:36:13.496Z,15.23
2023-01-26T23:38:41.146Z,13.27
2023-01-26T23:41:08.797Z,14.40
2023-01-26T23:43:36.079Z,13.27
2023-01-26T23:46:05.233Z,13.23
2023-01-26T23:48:32.529Z,14.03
2023-01-26T23:51:19.403Z,13.27
2023-01-26T23:53:46.689Z,14.27
2023-01-26T23:56:16.041Z,13.20
2023-01-26T23:58:43.622Z,12.60
